Airfield :
LOGIN :

Register | Disclaimer

   EN    FR    IT 

 










Legend :    VFR   Marginal VFR   IFR   Intensive IFR   Very Intensive IFR
Visi :
Ceiling :
>= 8 km
>= 3000ft
5 to 8 km
1000 to 3000 ft
1500m to 5 km
500 to 1000 ft
800 to 1500m
200 to 500 ft
< 800m
< 200 ft
Symbols :   Thunderstorms  Fog  Heavy snow  Heavy precipitations  Wind > 20 kt
SIGMETs :     Misc.  Thunderstorms  Icing  Turbulence  Mountain Waves  Volcanic Ashes






- Airport Elevation : 1071 ft
- IATA code : LWO


UKLL - L'viv

CURRENT METAR :
  • 011830Z 00000MPS CAVOK M01/M06 Q1017 R31/D NOSIG

EXPIRED METARs :
  • 011800Z 00000MPS CAVOK 00/M06 Q1017 R31/D NOSIG
  • 011730Z 28002MPS CAVOK 02/M07 Q1017 R31/D NOSIG
  • 011700Z 29002MPS CAVOK 04/M07 Q1016 R31/D NOSIG
  • 011630Z 28003MPS CAVOK 05/M08 Q1017 R31/D NOSIG
  • 011600Z 28004MPS 240V310 CAVOK 06/M08 Q1017 R31/CLRD// NOSIG

TAF TAF UKLL
Valid from the 01 at 18:00 until the 02 at 18:00 UTC


011701Z 0118/0218 VRB01MPS 3000 BR SCT007 TX09/0212Z TNM04/0204Z
TEMPO 0118/0207 22004MPS
FM020700 26005G11MPS 9999 BKN025



MET'MAP, your aeronautical weather chart ! - Copyright ORBIFLY December 2007 - Disclaimer

ORBIFLY MET'MAP TEAM :

Programming & Development : Alexandra Zaïnal
Concept & original design : Baudouin d'Aumeries
Assistance for programming : Marc-Olivier Méhu
Technical & hardware support : Manuel Goepfert

Contact : metmap@orbifly.com




SOURCES & CREDITS :

   NOAA